ソウル/仁川 の空港の天気 - METARとTAF

仁川国際空港 ( RKSI / ICN ) - 韓国 仁川広域市 (ソウル特別市近郊)
飛行場実況気象(Metar)
観測時間01/20 12:00 KST (01/20 03:00 UTC)
風向・風速北西 8m/s
視程10km以上
天気現象
なし
気温0℃
湿度31%
気圧1024hPa
METARRKSI 200300Z 32015KT CAVOK M00/M15 Q1024 NOSIG
過去の天気等 Google飛行場航空写真 Wunderground天気予報

過去48時間のMETAR

飛行場予報(TAF)
発表時間: 1/20 08:00 KST (1/19 23:00 UTC)
予報対象時間: 20日9時 KST ~ 21日15時 KST
風向・風速北西 10m/s 瞬間風速 18m/s
視程10km以上
なし
20日17時 KST ~ 20日18時 KST に徐々に
風向・風速北西 8m/s 瞬間風速 13m/s
20日20時 KST ~ 20日21時 KST に徐々に
風向・風速北西 6m/s
21日5時 KST ~ 21日6時 KST に徐々に
風向・風速西南西 4m/s
21日11時 KST ~ 21日12時 KST に徐々に
風向・風速北西 6m/s
21日13時 KST ~ 21日14時 KST に徐々に
風向・風速北西 9m/s 瞬間風速 15m/s
TAF RKSI 192300Z 2000/2106 32020G35KT CAVOK TX00/2006Z TNM05/2021Z TX05/2106Z
BECMG 2008/2009 32015G25KT
BECMG 2011/2012 32012KT
BECMG 2020/2021 25008KT
BECMG 2102/2103 32012KT
BECMG 2104/2105 32018G30KT